Salzburg Airport LOWS

Flugplatz Daten

Name: Salzburg Airport

Ident: LOWS

Lat: 47,79330063

Long: 13,00430012

Platzhöhe: 1411 ft

IataCode: SZG

City: Salzburg

Metar

2022/08/14 05:20
LOWS 140520Z AUTO 16011KT CAVOK 15/11 Q1013 NOSIG

Taf

2022/08/14 00:06
TAF LOWS 132315Z 1400/1424 15007KT CAVOK TX28/1415Z TN14/1404Z
BECMG 1409/1411 34007KT
BECMG 1419/1421 16004KT

Webcams

Hangar 7 Hangar Vorfeld Vorfeld Panorama Vorfeld 2
Gewünschte Webcam nicht vorhanden? Dann fügen Sie eine hinzu. Sie wird dann so schnell wie möglich freigeschaltet
Url: Title: